Time;durP1;ratioP1;P1;durP2;ratioP2;P2;SDS_P1;SDS_P2;PMS_P1;PMS_P2;Temp;Humidity;BMP_temperature;BMP_pressure;BME280_temperature;BME280_humidity;BME280_pressure;Samples;Min_cycle;Max_cycle;Signal;HPM_P1;HPM_P2
2021/05/04 00:00:04;;;;;;;3.72;2.67;;;12.30;65.50;12.20;99602.00;;;;343159;28;92096;-87
2021/05/04 00:00:15;;;;;;;2.95;2.53;;;12.30;66.40;12.20;99610.00;;;;345625;28;97221;-87
2021/05/04 00:00:26;;;;;;;3.47;2.70;;;12.30;65.80;12.10;99599.00;;;;341834;28;91218;-88
2021/05/04 00:00:38;;;;;;;3.58;2.85;;;12.20;65.80;12.20;99609.00;;;;343967;28;94746;-87
2021/05/04 00:00:49;;;;;;;3.63;2.67;;;12.20;66.00;12.20;99609.00;;;;342335;28;91940;-87
2021/05/04 00:01:00;;;;;;;3.53;2.70;;;12.20;66.30;12.30;99605.00;;;;343940;28;96881;-87
2021/05/04 00:01:12;;;;;;;3.42;2.55;;;12.20;65.70;12.30;99598.00;;;;345086;28;92094;-87
2021/05/04 00:01:23;;;;;;;3.58;2.65;;;12.20;65.90;12.30;99608.00;;;;343799;28;97119;-87
2021/05/04 00:01:35;;;;;;;3.60;2.63;;;12.20;65.30;12.40;99603.00;;;;342432;28;91216;-88
2021/05/04 00:01:46;;;;;;;3.90;2.80;;;12.20;65.90;12.40;99598.00;;;;343648;28;94870;-87
2021/05/04 00:01:57;;;;;;;3.95;2.88;;;12.20;65.50;12.40;99598.00;;;;343914;28;91822;-86
2021/05/04 00:02:09;;;;;;;3.80;2.95;;;12.20;66.40;12.30;99603.00;;;;345201;28;96436;-87
2021/05/04 00:02:20;;;;;;;3.80;2.92;;;12.20;66.20;12.40;99602.00;;;;342250;28;91240;-87
2021/05/04 00:02:32;;;;;;;3.63;2.85;;;12.20;65.60;12.50;99599.00;;;;342236;28;93377;-87
2021/05/04 00:02:43;;;;;;;3.80;2.95;;;12.20;65.80;12.60;99601.00;;;;342372;28;92087;-87
2021/05/04 00:02:55;;;;;;;4.10;2.80;;;12.20;65.80;12.60;99602.00;;;;343152;28;97517;-86
2021/05/04 00:03:06;;;;;;;4.82;2.50;;;12.30;65.70;12.60;99602.00;;;;343870;28;91110;-87
2021/05/04 00:03:18;;;;;;;4.85;2.42;;;12.30;65.70;12.60;99599.00;;;;342645;28;94399;-87
2021/05/04 00:03:29;;;;;;;5.00;2.45;;;12.30;65.50;12.60;99604.00;;;;342406;28;92049;-87
2021/05/04 00:03:41;;;;;;;4.53;2.70;;;12.30;66.00;12.70;99601.00;;;;345403;28;94446;-87
2021/05/04 00:03:53;;;;;;;4.28;2.78;;;12.20;66.60;12.70;99609.00;;;;342554;28;91052;-87
2021/05/04 00:04:05;;;;;;;3.35;2.88;;;12.30;66.50;12.60;99595.00;;;;345335;28;93486;-87
2021/05/04 00:04:16;;;;;;;3.78;3.17;;;12.30;66.90;12.60;99599.00;;;;342204;28;91308;-87
2021/05/04 00:04:28;;;;;;;4.20;3.33;;;12.30;66.40;12.50;99607.00;;;;343716;28;95208;-87
2021/05/04 00:04:39;;;;;;;4.78;3.38;;;12.20;66.60;12.40;99600.00;;;;343096;28;92198;-88
2021/05/04 00:04:50;;;;;;;5.50;3.38;;;12.20;66.60;12.40;99602.00;;;;344024;28;93489;-86
2021/05/04 00:05:02;;;;;;;6.28;3.33;;;12.20;66.70;12.40;99603.00;;;;344916;28;92049;-87
2021/05/04 00:05:14;;;;;;;6.45;3.08;;;12.20;66.40;12.50;99607.00;;;;341194;28;96406;-86
2021/05/04 00:05:25;;;;;;;5.07;3.13;;;12.20;66.40;12.50;99605.00;;;;343387;28;94839;-87
2021/05/04 00:05:37;;;;;;;4.30;2.85;;;12.20;66.70;12.60;99609.00;;;;343954;28;95721;-87
2021/05/04 00:05:48;;;;;;;4.00;3.05;;;12.20;67.10;12.60;99598.00;;;;342208;28;92095;-86
2021/05/04 00:05:59;;;;;;;4.53;3.35;;;12.20;66.30;12.50;99599.00;;;;346132;28;96024;-87
2021/05/04 00:06:11;;;;;;;4.47;3.25;;;12.20;67.00;12.50;99598.00;;;;343633;28;91321;-87
2021/05/04 00:06:23;;;;;;;5.25;3.15;;;12.20;66.30;12.40;99587.00;;;;345137;28;93376;-87
2021/05/04 00:06:34;;;;;;;5.22;2.60;;;12.20;66.60;12.50;99593.00;;;;343932;28;91891;-87
2021/05/04 00:06:46;;;;;;;5.55;2.72;;;12.20;66.20;12.60;99590.00;;;;342550;28;93542;-87
2021/05/04 00:06:57;;;;;;;6.47;3.28;;;12.20;66.20;12.50;99589.00;;;;342490;28;92207;-86
2021/05/04 00:07:09;;;;;;;5.70;3.70;;;12.20;66.10;12.50;99590.00;;;;340984;28;95599;-88
2021/05/04 00:07:21;;;;;;;5.30;3.65;;;12.20;66.40;12.60;99592.00;;;;342480;28;91859;-87
2021/05/04 00:07:32;;;;;;;4.10;3.38;;;12.20;66.10;12.60;99588.00;;;;342605;28;94160;-87
2021/05/04 00:07:44;;;;;;;3.72;2.97;;;12.30;66.20;12.40;99595.00;;;;343674;28;91857;-87
2021/05/04 00:07:56;;;;;;;4.25;3.22;;;12.30;66.40;12.40;99593.00;;;;343888;28;93313;-89
2021/05/04 00:08:07;;;;;;;5.13;3.30;;;12.30;66.70;12.50;99590.00;;;;343475;28;91589;-87
2021/05/04 00:08:18;;;;;;;5.88;3.58;;;12.20;66.70;12.30;99597.00;;;;344091;28;93475;-87
2021/05/04 00:08:30;;;;;;;6.50;3.60;;;12.20;66.60;12.40;99599.00;;;;342248;28;92339;-87
2021/05/04 00:08:41;;;;;;;6.75;3.58;;;12.20;66.70;12.40;99591.00;;;;342975;28;93947;-86
2021/05/04 00:08:53;;;;;;;5.72;3.50;;;12.20;67.10;12.40;99591.00;;;;343452;28;92077;-87
2021/05/04 00:09:05;;;;;;;6.30;3.47;;;12.20;66.90;12.30;99586.00;;;;343992;28;94020;-87
2021/05/04 00:09:16;;;;;;;6.00;3.38;;;12.20;67.30;12.40;99585.00;;;;342135;28;92103;-87
2021/05/04 00:09:28;;;;;;;5.00;3.38;;;12.20;67.00;12.40;99585.00;;;;341937;28;93377;-87
2021/05/04 00:09:39;;;;;;;4.68;3.45;;;12.20;67.10;12.50;99594.00;;;;342549;28;91957;-87
2021/05/04 00:09:51;;;;;;;5.25;3.55;;;12.20;66.70;12.40;99590.00;;;;343796;28;95763;-87
2021/05/04 00:10:03;;;;;;;4.60;3.33;;;12.20;67.20;12.50;99594.00;;;;343852;28;91299;-87
2021/05/04 00:10:14;;;;;;;4.47;3.25;;;12.20;67.30;12.30;99596.00;;;;340987;28;95178;-87
2021/05/04 00:10:26;;;;;;;5.20;3.88;;;12.20;67.80;12.20;99598.00;;;;342536;28;91906;-87
2021/05/04 00:10:37;;;;;;;6.05;3.90;;;12.20;67.50;12.20;99590.00;;;;342457;28;94227;-87
2021/05/04 00:10:49;;;;;;;5.85;3.65;;;12.20;67.70;12.40;99586.00;;;;343706;28;92005;-87
2021/05/04 00:11:04;;;;;;;5.80;3.90;;;12.20;68.40;12.30;99589.00;;;;342523;28;94164;-88
2021/05/04 00:11:15;;;;;;;6.68;4.22;;;12.20;68.10;12.40;99594.00;;;;342353;28;92023;-87
2021/05/04 00:11:27;;;;;;;6.22;3.90;;;12.20;67.80;12.40;99591.00;;;;343250;28;94656;-88
2021/05/04 00:11:38;;;;;;;5.57;3.95;;;12.20;67.50;12.40;99592.00;;;;342394;28;91857;-87
2021/05/04 00:11:51;;;;;;;4.50;4.10;;;12.20;67.80;12.20;99594.00;;;;341367;28;94239;-87
2021/05/04 00:12:03;;;;;;;4.43;3.90;;;12.10;67.90;12.00;99591.00;;;;341958;28;90451;-87
2021/05/04 00:12:14;;;;;;;5.00;3.67;;;12.10;68.20;11.90;99597.00;;;;342558;28;92227;-87
2021/05/04 00:12:26;;;;;;;5.35;3.58;;;12.10;68.60;11.80;99596.00;;;;343721;28;92037;-87
2021/05/04 00:12:37;;;;;;;5.22;3.60;;;12.10;68.50;12.10;99593.00;;;;343968;28;93738;-87
2021/05/04 00:12:49;;;;;;;4.60;3.65;;;12.10;68.10;12.30;99592.00;;;;343940;28;91988;-86
2021/05/04 00:13:00;;;;;;;4.38;3.60;;;12.10;67.80;12.30;99597.00;;;;342682;28;93690;-87
2021/05/04 00:13:12;;;;;;;3.85;3.40;;;12.10;68.20;12.10;99589.00;;;;342510;28;91091;-87
2021/05/04 00:13:23;;;;;;;4.22;3.63;;;12.10;68.40;12.00;99595.00;;;;342340;28;94082;-87
2021/05/04 00:13:34;;;;;;;4.60;3.97;;;12.10;68.30;11.90;99598.00;;;;343849;28;92016;-87
2021/05/04 00:13:46;;;;;;;5.03;4.05;;;12.10;68.40;12.00;99599.00;;;;341328;28;94429;-87
2021/05/04 00:13:58;;;;;;;5.20;3.92;;;12.10;68.30;12.10;99593.00;;;;343876;28;91260;-87
2021/05/04 00:14:09;;;;;;;5.18;3.90;;;12.10;67.80;12.10;99599.00;;;;344076;28;92199;-87
2021/05/04 00:14:21;;;;;;;4.22;3.72;;;12.10;67.70;12.10;99597.00;;;;344972;28;92101;-87
2021/05/04 00:14:35;;;;;;;4.15;3.63;;;12.00;68.30;11.90;99593.00;;;;342615;28;93722;-87
2021/05/04 00:14:46;;;;;;;3.97;3.58;;;12.00;68.50;12.00;99590.00;;;;342402;28;92313;-87
2021/05/04 00:14:58;;;;;;;5.97;3.97;;;12.00;68.20;12.10;99599.00;;;;342579;28;94236;-86
2021/05/04 00:15:10;;;;;;;8.57;4.28;;;12.00;68.20;12.00;99593.00;;;;342461;28;91871;-87
2021/05/04 00:15:22;;;;;;;8.45;4.03;;;12.00;68.30;12.00;99595.00;;;;343591;28;95598;-87
2021/05/04 00:15:33;;;;;;;6.13;3.65;;;12.00;68.10;12.10;99587.00;;;;342489;28;92073;-88
2021/05/04 00:15:44;;;;;;;5.18;3.72;;;12.00;68.20;12.10;99595.00;;;;342684;28;94208;-86
2021/05/04 00:15:56;;;;;;;5.20;3.70;;;12.00;67.50;12.20;99589.00;;;;343949;28;91078;-87
2021/05/04 00:16:07;;;;;;;5.28;3.55;;;12.00;67.30;12.10;99589.00;;;;342591;28;93542;-87
2021/05/04 00:16:19;;;;;;;5.15;3.70;;;12.00;68.50;12.10;99594.00;;;;342496;28;92079;-87
2021/05/04 00:16:30;;;;;;;5.13;4.07;;;12.00;68.60;12.10;99597.00;;;;342675;28;95559;-87
2021/05/04 00:16:42;;;;;;;4.68;3.92;;;12.00;68.90;12.10;99601.00;;;;342406;28;93421;-88
2021/05/04 00:16:53;;;;;;;4.65;3.90;;;12.00;69.00;12.10;99590.00;;;;342801;28;93854;-87
2021/05/04 00:17:05;;;;;;;4.80;3.72;;;12.00;68.80;11.90;99587.00;;;;345506;28;92210;-87
2021/05/04 00:17:17;;;;;;;4.47;3.25;;;11.90;68.80;11.90;99597.00;;;;346896;28;96059;-87
2021/05/04 00:17:30;;;;;;;4.65;3.17;;;11.90;68.80;12.00;99590.00;;;;343308;28;92143;-87
2021/05/04 00:17:41;;;;;;;5.15;3.65;;;11.90;68.70;12.00;99593.00;;;;344823;28;96109;-87
2021/05/04 00:17:53;;;;;;;5.38;3.80;;;11.90;68.80;12.00;99586.00;;;;344031;28;91203;-87
2021/05/04 00:18:04;;;;;;;5.43;3.90;;;11.90;68.50;12.00;99595.00;;;;344153;28;93001;-87
2021/05/04 00:18:16;;;;;;;5.15;3.90;;;11.90;68.40;12.10;99592.00;;;;342685;28;91932;-87
2021/05/04 00:18:28;;;;;;;4.88;3.72;;;11.90;68.00;12.10;99584.00;;;;342905;28;93561;-87
2021/05/04 00:18:40;;;;;;;6.18;3.78;;;11.90;67.80;12.00;99588.00;;;;344045;28;91942;-87
2021/05/04 00:18:51;;;;;;;6.28;3.47;;;11.90;68.00;11.80;99592.00;;;;345112;28;95836;-87
2021/05/04 00:19:03;;;;;;;6.45;3.33;;;11.90;69.00;11.80;99598.00;;;;346737;28;91157;-89
2021/05/04 00:19:15;;;;;;;5.10;3.33;;;11.90;69.00;11.90;99587.00;;;;344053;28;95672;-87
2021/05/04 00:19:27;;;;;;;4.85;3.63;;;11.90;69.00;11.90;99589.00;;;;345294;28;92158;-87
2021/05/04 00:19:39;;;;;;;5.70;3.95;;;11.90;69.00;11.90;99589.00;;;;342893;28;94147;-87
2021/05/04 00:19:51;;;;;;;7.07;4.38;;;11.90;68.80;12.00;99584.00;;;;345563;28;91130;-87
2021/05/04 00:20:04;;;;;;;6.38;4.13;;;11.90;68.20;12.10;99587.00;;;;342878;28;90798;-87
2021/05/04 00:20:16;;;;;;;5.07;3.78;;;11.90;68.20;12.10;99589.00;;;;345237;28;92158;-88
2021/05/04 00:20:27;;;;;;;4.90;3.47;;;11.90;67.90;12.20;99578.00;;;;343640;28;96033;-87
2021/05/04 00:20:39;;;;;;;4.35;3.20;;;11.90;67.80;12.30;99592.00;;;;345368;28;91874;-87
2021/05/04 00:20:50;;;;;;;4.72;3.30;;;11.90;67.80;12.20;99587.00;;;;343829;28;95310;-87
2021/05/04 00:21:02;;;;;;;4.75;3.42;;;11.90;67.70;12.20;99585.00;;;;345525;28;92001;-86
2021/05/04 00:21:13;;;;;;;4.28;3.47;;;12.00;68.00;12.20;99588.00;;;;344150;28;95965;-87
2021/05/04 00:21:24;;;;;;;4.50;3.60;;;11.90;68.00;12.10;99587.00;;;;342607;28;92072;-87
2021/05/04 00:21:36;;;;;;;4.63;3.55;;;11.90;68.20;12.00;99589.00;;;;342647;28;95838;-87
2021/05/04 00:21:47;;;;;;;4.25;3.63;;;11.90;68.50;11.90;99587.00;;;;345168;28;90437;-87
2021/05/04 00:21:59;;;;;;;4.15;3.60;;;11.90;68.90;12.10;99590.00;;;;343850;28;94878;-87
2021/05/04 00:22:10;;;;;;;4.43;3.88;;;11.90;68.50;12.20;99588.00;;;;341368;28;92271;-87
2021/05/04 00:22:21;;;;;;;4.72;3.97;;;12.00;68.60;12.20;99582.00;;;;341439;28;94490;-87
2021/05/04 00:22:32;;;;;;;4.53;3.78;;;12.00;68.60;12.20;99582.00;;;;342753;28;91922;-88
2021/05/04 00:22:44;;;;;;;5.40;3.53;;;12.00;68.90;12.20;99586.00;;;;342845;28;94432;-87
2021/05/04 00:22:55;;;;;;;6.03;3.60;;;12.00;68.20;12.20;99582.00;;;;342505;28;92074;-87
2021/05/04 00:23:07;;;;;;;5.45;3.55;;;12.00;67.90;12.20;99578.00;;;;344209;28;94690;-87
2021/05/04 00:23:18;;;;;;;4.85;3.60;;;12.00;68.40;11.90;99583.00;;;;342568;28;92105;-87
2021/05/04 00:23:30;;;;;;;4.65;3.58;;;12.00;68.30;11.90;99584.00;;;;343132;28;96753;-87
2021/05/04 00:23:41;;;;;;;4.20;3.10;;;12.00;68.70;11.80;99586.00;;;;343779;28;91785;-86
2021/05/04 00:23:52;;;;;;;4.20;3.08;;;12.00;69.00;11.80;99587.00;;;;345629;28;94112;-87
2021/05/04 00:24:05;;;;;;;5.30;3.50;;;11.90;69.00;11.90;99586.00;;;;343689;28;92145;-87
2021/05/04 00:24:17;;;;;;;5.68;3.85;;;11.90;69.10;11.90;99582.00;;;;342748;28;93800;-87
2021/05/04 00:24:28;;;;;;;4.35;3.75;;;11.90;69.30;11.90;99585.00;;;;344870;28;92291;-86
2021/05/04 00:24:39;;;;;;;4.35;3.47;;;11.90;69.10;11.90;99581.00;;;;342669;28;95521;-86
2021/05/04 00:24:51;;;;;;;4.93;3.58;;;11.90;68.90;12.00;99582.00;;;;343851;28;92102;-87
2021/05/04 00:25:03;;;;;;;5.20;3.58;;;11.90;68.60;12.00;99581.00;;;;342909;28;94422;-87
2021/05/04 00:25:15;;;;;;;5.03;3.45;;;11.90;68.70;12.00;99575.00;;;;341352;28;92048;-87
2021/05/04 00:25:27;;;;;;;3.58;3.17;;;11.90;68.50;12.00;99581.00;;;;344148;28;93790;-87
2021/05/04 00:25:38;;;;;;;3.38;2.83;;;11.90;68.60;11.90;99584.00;;;;342761;28;91137;-87
2021/05/04 00:25:50;;;;;;;3.42;2.72;;;11.90;68.80;11.60;99578.00;;;;344025;28;94145;-87
2021/05/04 00:26:02;;;;;;;4.40;3.03;;;11.90;68.90;11.50;99587.00;;;;342489;28;91254;-87
2021/05/04 00:26:13;;;;;;;5.15;3.40;;;11.90;68.90;11.70;99580.00;;;;341543;28;92786;-87
2021/05/04 00:26:25;;;;;;;4.88;3.33;;;11.90;68.90;12.00;99585.00;;;;342027;28;92490;-87
2021/05/04 00:26:37;;;;;;;4.60;3.13;;;11.90;68.50;12.10;99581.00;;;;341762;28;92554;-87
2021/05/04 00:26:48;;;;;;;4.10;2.97;;;11.90;68.40;12.20;99578.00;;;;344145;28;91826;-87
2021/05/04 00:26:59;;;;;;;4.13;2.90;;;11.90;68.30;12.20;99581.00;;;;344194;28;94244;-87
2021/05/04 00:27:11;;;;;;;4.47;3.00;;;11.90;68.30;12.20;99579.00;;;;344071;28;92320;-87
2021/05/04 00:27:24;;;;;;;4.28;2.95;;;11.90;68.10;12.00;99579.00;;;;344015;28;94550;-87
2021/05/04 00:27:35;;;;;;;3.88;2.85;;;11.90;68.20;11.90;99573.00;;;;345268;28;91359;-87
2021/05/04 00:27:47;;;;;;;6.63;3.20;;;11.90;68.40;11.90;99584.00;;;;345363;28;95085;-87
2021/05/04 00:27:59;;;;;;;6.70;3.22;;;12.00;68.70;12.00;99579.00;;;;345171;28;91950;-88
2021/05/04 00:28:10;;;;;;;5.70;3.38;;;11.90;68.70;12.00;99582.00;;;;344204;28;94612;-87
2021/05/04 00:28:38;;;;;;;4.53;3.03;;;11.90;68.30;11.90;99578.00;;;;347947;27;92111;-87
2021/05/04 00:28:49;;;;;;;5.57;3.28;;;11.90;68.70;12.00;99583.00;;;;342872;28;94338;-87
2021/05/04 00:29:01;;;;;;;4.95;3.17;;;11.90;68.40;12.10;99574.00;;;;345509;28;91863;-87
2021/05/04 00:29:13;;;;;;;5.93;3.35;;;11.90;68.00;12.20;99579.00;;;;345338;28;95453;-88
2021/05/04 00:29:24;;;;;;;4.63;3.13;;;11.90;67.90;12.00;99579.00;;;;344071;28;91978;-87
2021/05/04 00:29:36;;;;;;;4.63;3.05;;;11.90;68.50;12.10;99576.00;;;;342903;28;94525;-88
2021/05/04 00:29:47;;;;;;;3.92;3.03;;;11.90;68.20;12.20;99573.00;;;;345523;28;91013;-87
2021/05/04 00:29:59;;;;;;;4.10;3.15;;;11.90;68.00;12.30;99578.00;;;;344346;28;93659;-87
2021/05/04 00:30:11;;;;;;;4.43;3.65;;;12.00;67.90;12.10;99580.00;;;;342520;28;91947;-87
2021/05/04 00:30:23;;;;;;;4.15;3.58;;;12.00;68.10;12.00;99575.00;;;;343924;28;95972;-87
2021/05/04 00:30:34;;;;;;;4.38;3.33;;;11.90;68.60;12.00;99578.00;;;;341293;28;91962;-87
2021/05/04 00:30:45;;;;;;;5.18;3.30;;;11.90;68.30;11.70;99585.00;;;;342784;28;94513;-87
2021/05/04 00:30:57;;;;;;;5.70;3.50;;;11.90;68.60;11.90;99584.00;;;;341398;28;91875;-87
2021/05/04 00:31:09;;;;;;;4.32;3.45;;;11.90;68.70;11.90;99569.00;;;;344132;28;97526;-87
2021/05/04 00:31:20;;;;;;;4.28;3.33;;;11.90;68.80;11.90;99577.00;;;;343983;28;91091;-87
2021/05/04 00:31:32;;;;;;;3.67;3.03;;;11.90;68.90;12.00;99579.00;;;;344201;28;94115;-87
2021/05/04 00:31:44;;;;;;;4.13;3.03;;;11.90;68.80;12.00;99580.00;;;;343851;28;91434;-87
2021/05/04 00:31:55;;;;;;;4.85;3.33;;;11.90;69.00;11.90;99570.00;;;;344046;28;94613;-87
2021/05/04 00:32:07;;;;;;;6.47;3.85;;;11.90;69.20;11.80;99576.00;;;;344013;28;91857;-87
2021/05/04 00:32:19;;;;;;;6.57;4.13;;;11.80;69.20;11.70;99579.00;;;;342674;28;94707;-87
2021/05/04 00:32:30;;;;;;;6.75;3.88;;;11.80;69.00;11.90;99580.00;;;;342317;28;92032;-87
2021/05/04 00:32:42;;;;;;;6.50;4.22;;;11.80;68.70;12.00;99575.00;;;;343102;28;92609;-87
2021/05/04 00:32:54;;;;;;;7.40;4.28;;;11.80;68.80;12.00;99575.00;;;;343541;28;92053;-86
2021/05/04 00:33:05;;;;;;;7.43;4.20;;;11.80;68.50;11.80;99571.00;;;;342794;28;96646;-87
2021/05/04 00:33:17;;;;;;;6.47;4.05;;;11.80;68.60;11.70;99581.00;;;;342537;28;91984;-87
2021/05/04 00:33:29;;;;;;;5.25;3.90;;;11.90;68.90;11.80;99577.00;;;;341400;28;93823;-87
2021/05/04 00:33:41;;;;;;;4.50;3.33;;;11.80;68.90;11.70;99581.00;;;;345588;28;91380;-86
2021/05/04 00:33:53;;;;;;;4.15;3.22;;;11.80;68.60;11.90;99585.00;;;;342923;28;93065;-86
2021/05/04 00:34:05;;;;;;;6.50;3.85;;;11.80;68.60;12.00;99575.00;;;;343595;28;92201;-86
2021/05/04 00:34:16;;;;;;;7.65;4.25;;;11.80;68.60;11.90;99582.00;;;;341527;28;92720;-88
2021/05/04 00:34:28;;;;;;;8.55;4.88;;;11.80;68.90;12.10;99577.00;;;;344130;28;91883;-87
2021/05/04 00:34:40;;;;;;;5.22;3.92;;;11.90;68.60;12.20;99575.00;;;;344167;28;94641;-87
2021/05/04 00:34:52;;;;;;;4.70;3.33;;;11.90;68.30;12.20;99572.00;;;;343896;28;92131;-87
2021/05/04 00:35:04;;;;;;;4.53;3.13;;;11.90;68.20;12.10;99572.00;;;;342687;28;95404;-87
2021/05/04 00:35:16;;;;;;;4.82;3.58;;;11.90;68.40;12.10;99578.00;;;;342487;28;92049;-87
2021/05/04 00:35:31;;;;;;;5.22;4.00;;;11.90;68.30;12.00;99573.00;;;;341543;28;93771;-87
2021/05/04 00:35:42;;;;;;;5.13;3.88;;;11.90;68.60;12.10;99573.00;;;;344195;28;91283;-86
2021/05/04 00:35:55;;;;;;;6.97;3.72;;;11.90;68.30;11.90;99578.00;;;;342917;28;90722;-87
2021/05/04 00:36:07;;;;;;;8.27;3.42;;;11.90;68.10;12.10;99576.00;;;;343986;28;91993;-87
2021/05/04 00:36:19;;;;;;;8.30;3.40;;;11.90;68.20;12.00;99577.00;;;;345613;28;94379;-87
2021/05/04 00:36:30;;;;;;;4.57;3.58;;;11.90;68.40;12.10;99569.00;;;;344845;28;92143;-86
2021/05/04 00:36:42;;;;;;;5.10;3.83;;;11.90;68.00;12.20;99571.00;;;;345306;28;95800;-86
2021/05/04 00:36:53;;;;;;;6.20;3.97;;;11.90;68.60;12.20;99569.00;;;;345396;28;91941;-87
2021/05/04 00:37:04;;;;;;;5.97;4.07;;;11.90;68.20;12.10;99571.00;;;;345607;28;94276;-87
2021/05/04 00:37:16;;;;;;;5.22;4.18;;;11.90;68.30;12.10;99571.00;;;;344116;28;91939;-86
2021/05/04 00:37:27;;;;;;;4.75;4.10;;;11.90;68.60;12.10;99570.00;;;;344178;28;94159;-87
2021/05/04 00:37:39;;;;;;;4.38;3.75;;;11.90;68.40;12.10;99571.00;;;;342636;28;90444;-87
2021/05/04 00:37:51;;;;;;;4.93;3.60;;;11.90;67.90;11.90;99573.00;;;;344131;28;92946;-87
2021/05/04 00:38:03;;;;;;;6.03;3.63;;;11.90;68.30;12.00;99573.00;;;;343397;28;92435;-87
2021/05/04 00:38:14;;;;;;;5.75;3.90;;;11.90;68.50;12.20;99572.00;;;;342914;28;93848;-87
2021/05/04 00:38:26;;;;;;;5.22;3.67;;;11.90;68.30;12.20;99575.00;;;;344811;28;92619;-87
2021/05/04 00:38:37;;;;;;;4.68;3.40;;;11.90;68.20;12.30;99573.00;;;;342959;28;97031;-88
2021/05/04 00:38:48;;;;;;;5.00;3.60;;;11.90;68.50;12.30;99574.00;;;;343962;28;91200;-88
2021/05/04 00:39:00;;;;;;;4.63;3.70;;;12.00;68.50;12.20;99568.00;;;;342734;28;96200;-87
2021/05/04 00:39:11;;;;;;;4.57;4.10;;;12.00;68.60;11.90;99571.00;;;;344031;28;92010;-87
2021/05/04 00:39:27;;;;;;;4.25;3.85;;;11.90;68.60;12.00;99576.00;;;;345622;28;94066;-87
2021/05/04 00:39:38;;;;;;;4.82;3.53;;;12.00;68.70;12.20;99574.00;;;;345033;28;91400;-87
2021/05/04 00:39:50;;;;;;;6.47;3.42;;;12.00;68.50;12.20;99573.00;;;;345330;28;96385;-87
2021/05/04 00:40:01;;;;;;;5.80;3.40;;;12.00;68.50;12.20;99575.00;;;;342568;28;92056;-87
2021/05/04 00:40:13;;;;;;;5.07;3.45;;;12.00;68.30;12.20;99579.00;;;;341460;28;96379;-86
2021/05/04 00:40:25;;;;;;;4.80;3.60;;;12.00;68.20;12.20;99570.00;;;;342658;28;91197;-89
2021/05/04 00:40:36;;;;;;;4.78;3.53;;;12.00;68.40;12.20;99574.00;;;;342711;28;96419;-88
2021/05/04 00:40:47;;;;;;;5.10;3.70;;;12.00;68.30;12.20;99577.00;;;;342625;28;92181;-87
2021/05/04 00:40:59;;;;;;;6.25;3.65;;;12.00;68.20;11.80;99574.00;;;;344182;28;96909;-87
2021/05/04 00:41:10;;;;;;;6.18;3.47;;;12.00;68.50;11.70;99562.00;;;;343994;28;92389;-87
2021/05/04 00:41:21;;;;;;;5.32;3.40;;;11.90;68.70;11.70;99571.00;;;;344105;28;96797;-87
2021/05/04 00:41:33;;;;;;;4.32;3.50;;;11.90;68.80;11.80;99560.00;;;;343345;28;91331;-86
2021/05/04 00:41:44;;;;;;;5.15;3.60;;;11.90;68.90;11.70;99573.00;;;;343937;28;94970;-86
2021/05/04 00:41:56;;;;;;;5.20;3.53;;;11.90;68.80;11.70;99570.00;;;;343947;28;93382;-87
2021/05/04 00:42:07;;;;;;;4.60;3.30;;;11.90;69.00;11.70;99563.00;;;;344129;28;94043;-86
2021/05/04 00:42:23;;;;;;;4.03;3.25;;;11.90;69.10;11.80;99567.00;;;;345491;28;91947;-86
2021/05/04 00:42:34;;;;;;;4.00;3.30;;;11.90;69.70;11.70;99570.00;;;;345469;28;97169;-86
2021/05/04 00:42:46;;;;;;;4.28;3.35;;;11.90;69.30;11.60;99572.00;;;;342587;28;92170;-86
2021/05/04 00:43:09;;;;;;;3.78;3.30;;;11.80;69.40;11.70;99569.00;;;;343764;28;97416;-88
2021/05/04 00:43:28;;;;;;;4.05;3.40;;;11.80;69.00;12.00;99571.00;;;;342421;28;92055;-86
2021/05/04 00:43:39;;;;;;;4.90;3.50;;;11.80;69.00;12.10;99565.00;;;;344131;28;96514;-86
2021/05/04 00:43:50;;;;;;;4.60;3.22;;;11.90;69.10;11.80;99570.00;;;;345452;28;91209;-86
2021/05/04 00:44:02;;;;;;;6.45;3.55;;;11.90;69.20;11.70;99567.00;;;;341378;28;96011;-87
2021/05/04 00:44:13;;;;;;;6.75;3.40;;;11.90;69.20;11.90;99564.00;;;;344118;28;91941;-87
2021/05/04 00:44:25;;;;;;;5.22;3.28;;;11.80;69.10;11.50;99574.00;;;;345365;28;96704;-87
2021/05/04 00:44:36;;;;;;;5.32;3.45;;;11.80;69.30;11.40;99568.00;;;;342508;28;91960;-88
2021/05/04 00:44:48;;;;;;;5.32;3.83;;;11.80;69.70;11.70;99566.00;;;;344093;28;95534;-85
2021/05/04 00:44:59;;;;;;;5.32;3.65;;;11.80;69.40;11.90;99565.00;;;;343925;28;92034;-86
2021/05/04 00:45:11;;;;;;;4.78;3.30;;;11.80;69.60;11.80;99566.00;;;;341354;28;96761;-86
2021/05/04 00:45:22;;;;;;;5.28;3.00;;;11.80;69.90;11.90;99570.00;;;;343910;28;91995;-85
2021/05/04 00:45:34;;;;;;;4.78;3.30;;;11.80;69.50;11.90;99568.00;;;;342829;28;94033;-86
2021/05/04 00:45:45;;;;;;;4.32;3.50;;;11.80;69.30;11.80;99565.00;;;;344062;28;91245;-87
2021/05/04 00:45:56;;;;;;;4.28;3.65;;;11.80;69.40;11.80;99555.00;;;;342782;28;96038;-86
2021/05/04 00:46:08;;;;;;;4.05;3.35;;;11.80;69.60;11.70;99566.00;;;;344059;28;92058;-87
2021/05/04 00:46:19;;;;;;;4.10;3.28;;;11.70;69.20;11.90;99562.00;;;;346892;28;95790;-87
2021/05/04 00:46:31;;;;;;;3.78;3.17;;;11.70;68.70;12.00;99561.00;;;;342360;28;92091;-88
2021/05/04 00:46:42;;;;;;;4.85;3.20;;;11.80;68.80;12.10;99567.00;;;;342482;28;96833;-87
2021/05/04 00:46:54;;;;;;;5.50;3.03;;;11.80;68.80;12.00;99564.00;;;;343999;28;92105;-86
2021/05/04 00:47:05;;;;;;;4.95;2.72;;;11.80;68.50;11.90;99569.00;;;;342467;28;96747;-87
2021/05/04 00:47:16;;;;;;;3.15;2.53;;;11.80;68.70;11.80;99564.00;;;;342588;28;92023;-87
2021/05/04 00:47:29;;;;;;;4.03;3.17;;;11.80;69.30;11.70;99566.00;;;;343003;28;96991;-86
2021/05/04 00:47:40;;;;;;;4.60;3.65;;;11.80;69.30;11.60;99570.00;;;;345310;28;91272;-87
2021/05/04 00:47:52;;;;;;;5.25;4.15;;;11.80;69.90;11.60;99570.00;;;;343966;28;96737;-87
2021/05/04 00:48:04;;;;;;;4.98;4.20;;;11.70;69.20;11.90;99564.00;;;;345277;28;92357;-86
2021/05/04 00:48:15;;;;;;;4.35;3.83;;;11.70;69.20;11.80;99567.00;;;;344180;28;96567;-87
2021/05/04 00:48:29;;;;;;;3.88;3.45;;;11.80;69.70;11.80;99561.00;;;;342330;28;92093;-87
2021/05/04 00:48:40;;;;;;;3.95;3.35;;;11.70;69.50;11.90;99569.00;;;;344118;28;96583;-86
2021/05/04 00:48:51;;;;;;;4.80;3.60;;;11.70;69.20;11.90;99571.00;;;;343924;28;91279;-87
2021/05/04 00:49:03;;;;;;;5.25;3.63;;;11.70;69.30;11.90;99566.00;;;;342885;28;93461;-86
2021/05/04 00:49:14;;;;;;;4.57;3.30;;;11.70;68.90;11.90;99560.00;;;;344022;28;91960;-87
2021/05/04 00:49:25;;;;;;;4.57;3.30;;;11.70;68.70;11.80;99562.00;;;;345141;28;96708;-87
2021/05/04 00:49:37;;;;;;;4.28;2.90;;;11.70;69.40;11.70;99569.00;;;;344164;28;91217;-87
2021/05/04 00:49:48;;;;;;;5.57;3.53;;;11.70;69.90;11.60;99568.00;;;;345515;28;95913;-86
2021/05/04 00:49:59;;;;;;;5.35;3.90;;;11.70;69.60;11.70;99561.00;;;;344059;28;91891;-87
2021/05/04 00:50:11;;;;;;;5.57;3.65;;;11.70;69.80;11.90;99563.00;;;;342622;28;97174;-86
2021/05/04 00:50:23;;;;;;;4.38;3.17;;;11.70;69.60;12.00;99560.00;;;;343851;28;91998;-87
2021/05/04 00:50:34;;;;;;;4.47;3.17;;;11.70;69.60;12.10;99563.00;;;;343530;28;94519;-87
2021/05/04 00:50:46;;;;;;;4.45;2.78;;;11.70;69.50;12.10;99557.00;;;;343685;28;92090;-87
2021/05/04 00:51:00;;;;;;;4.55;2.90;;;11.80;69.50;12.00;99566.00;;;;342733;28;93987;-87
2021/05/04 00:51:11;;;;;;;5.38;3.38;;;11.80;69.70;12.00;99557.00;;;;343896;28;92006;-86
2021/05/04 00:51:23;;;;;;;6.68;3.50;;;11.70;69.40;11.90;99560.00;;;;341262;28;96599;-87
2021/05/04 00:51:34;;;;;;;6.30;3.47;;;11.80;70.10;11.90;99555.00;;;;342629;28;91266;-87
2021/05/04 00:51:46;;;;;;;5.45;3.47;;;11.70;69.90;11.90;99561.00;;;;344024;28;95600;-88
2021/05/04 00:51:58;;;;;;;4.55;3.40;;;11.70;69.30;12.00;99562.00;;;;342523;28;92014;-87
2021/05/04 00:52:09;;;;;;;5.60;3.55;;;11.70;68.90;11.80;99561.00;;;;345498;28;96585;-87
2021/05/04 00:52:21;;;;;;;5.72;3.65;;;11.80;69.50;11.90;99562.00;;;;343933;28;92153;-86
2021/05/04 00:52:32;;;;;;;5.28;3.60;;;11.70;69.30;11.80;99560.00;;;;341460;28;96660;-87
2021/05/04 00:52:44;;;;;;;3.70;2.97;;;11.70;69.30;11.90;99564.00;;;;343937;28;91149;-86
2021/05/04 00:52:55;;;;;;;4.00;3.10;;;11.70;69.00;11.80;99562.00;;;;344244;28;93910;-86